Time;durP1;ratioP1;P1;durP2;ratioP2;P2;SDS_P1;SDS_P2;PMS_P1;PMS_P2;Temp;Humidity;BMP_temperature;BMP_pressure;BME280_temperature;BME280_humidity;BME280_pressure;Samples;Min_cycle;Max_cycle;Signal;HPM_P1;HPM_P2
2021/03/14 00:00:56;;;;;;;12.25;6.15;;;;;;;;;;5093889;28;20035;-15
2021/03/14 00:03:23;;;;;;;9.18;5.28;;;;;;;;;;5093816;28;20042;-15
2021/03/14 00:05:49;;;;;;;12.98;5.90;;;;;;;;;;5093844;28;20382;-15
2021/03/14 00:08:15;;;;;;;6.68;4.57;;;;;;;;;;5092186;28;20031;-15
2021/03/14 00:10:44;;;;;;;12.05;5.35;;;;;;;;;;5092385;28;20024;-15
2021/03/14 00:13:11;;;;;;;14.23;6.18;;;;;;;;;;5093653;28;20024;-15
2021/03/14 00:15:36;;;;;;;9.73;6.13;;;;;;;;;;5093547;28;20055;-14
2021/03/14 00:18:02;;;;;;;13.55;5.50;;;;;;;;;;5093543;28;20055;-15
2021/03/14 00:20:27;;;;;;;8.32;4.50;;;;;;;;;;5093601;28;20399;-15
2021/03/14 00:22:52;;;;;;;10.35;5.15;;;;;;;;;;5092153;28;20040;-14
2021/03/14 00:25:18;;;;;;;14.50;4.88;;;;;;;;;;5093263;28;20056;-14
2021/03/14 00:27:44;;;;;;;9.27;4.82;;;;;;;;;;5093134;28;20046;-15
2021/03/14 00:30:12;;;;;;;7.90;3.85;;;;;;;;;;5093350;28;20024;-15
2021/03/14 00:32:37;;;;;;;7.03;4.53;;;;;;;;;;5093217;28;20039;-15
2021/03/14 00:35:03;;;;;;;9.82;4.32;;;;;;;;;;5092074;28;20479;-14
2021/03/14 00:37:28;;;;;;;10.85;4.70;;;;;;;;;;5091784;28;20093;-15
2021/03/14 00:39:54;;;;;;;10.35;4.78;;;;;;;;;;5092563;28;20039;-14
2021/03/14 00:42:19;;;;;;;10.23;4.88;;;;;;;;;;5092994;28;20481;-15
2021/03/14 00:44:45;;;;;;;10.00;4.90;;;;;;;;;;5093422;28;20024;-14
2021/03/14 00:47:11;;;;;;;9.48;4.15;;;;;;;;;;5091473;28;20402;-15
2021/03/14 00:49:36;;;;;;;7.85;3.58;;;;;;;;;;5092942;28;20028;-15
2021/03/14 00:52:02;;;;;;;11.38;3.38;;;;;;;;;;5091569;28;20031;-15
2021/03/14 00:54:28;;;;;;;12.95;3.42;;;;;;;;;;5091429;28;20677;-15
2021/03/14 00:56:53;;;;;;;8.98;4.20;;;;;;;;;;5092851;28;20056;-15
2021/03/14 00:59:19;;;;;;;11.60;3.78;;;;;;;;;;5091366;28;20048;-15
2021/03/14 01:01:44;;;;;;;7.25;3.40;;;;;;;;;;5091426;28;20378;-15
2021/03/14 01:04:10;;;;;;;7.82;3.78;;;;;;;;;;5092682;28;20471;-15
2021/03/14 01:06:36;;;;;;;9.90;3.80;;;;;;;;;;5091379;28;20035;-15
2021/03/14 01:09:05;;;;;;;5.15;3.20;;;;;;;;;;5091252;28;20039;-15
2021/03/14 01:11:32;;;;;;;7.40;3.83;;;;;;;;;;5092544;28;20028;-15
2021/03/14 01:14:07;;;;;;;8.55;4.05;;;;;;;;;;5091449;28;20028;-15
2021/03/14 01:16:46;;;;;;;7.40;3.38;;;;;;;;;;5091245;28;20032;-15
2021/03/14 01:19:12;;;;;;;8.30;3.63;;;;;;;;;;5091193;28;20034;-15
2021/03/14 01:21:37;;;;;;;9.57;3.65;;;;;;;;;;5092506;28;20043;-15
2021/03/14 01:24:03;;;;;;;6.57;2.60;;;;;;;;;;5092517;28;20035;-14
2021/03/14 01:26:28;;;;;;;7.35;2.97;;;;;;;;;;5091082;28;20028;-15
2021/03/14 01:28:53;;;;;;;5.63;3.03;;;;;;;;;;5092581;28;20042;-15
2021/03/14 01:31:19;;;;;;;5.63;2.78;;;;;;;;;;5092321;28;20019;-16
2021/03/14 01:33:44;;;;;;;11.40;3.47;;;;;;;;;;5091444;28;20028;-16
2021/03/14 01:36:09;;;;;;;8.18;2.80;;;;;;;;;;5092290;28;20374;-16
2021/03/14 01:38:35;;;;;;;5.38;2.00;;;;;;;;;;5092581;28;20032;-15
2021/03/14 01:41:00;;;;;;;9.93;3.00;;;;;;;;;;5092317;28;20039;-16
2021/03/14 01:43:29;;;;;;;5.40;2.25;;;;;;;;;;5092142;28;20035;-16
2021/03/14 01:45:54;;;;;;;7.47;3.17;;;;;;;;;;5090896;28;20020;-15
2021/03/14 01:48:22;;;;;;;7.47;2.28;;;;;;;;;;5092073;28;20123;-16
2021/03/14 01:50:47;;;;;;;7.32;2.65;;;;;;;;;;5094462;28;20008;-16
2021/03/14 01:53:13;;;;;;;7.50;2.60;;;;;;;;;;5094897;28;20134;-15
2021/03/14 01:55:38;;;;;;;5.75;2.28;;;;;;;;;;5096363;28;20463;-15
2021/03/14 01:58:04;;;;;;;6.75;2.30;;;;;;;;;;5096362;28;20040;-15
2021/03/14 02:00:30;;;;;;;7.00;2.47;;;;;;;;;;5096203;28;20077;-16
2021/03/14 02:02:56;;;;;;;5.20;2.30;;;;;;;;;;5095019;28;20488;-15
2021/03/14 02:05:22;;;;;;;9.35;2.60;;;;;;;;;;5095920;28;20052;-15
2021/03/14 02:07:52;;;;;;;7.07;1.90;;;;;;;;;;5096228;28;20036;-15
2021/03/14 02:10:19;;;;;;;4.93;2.30;;;;;;;;;;5096206;28;20055;-16
2021/03/14 02:13:05;;;;;;;5.10;1.90;;;;;;;;;;5095965;28;20036;-15
2021/03/14 02:15:32;;;;;;;4.47;1.60;;;;;;;;;;5095381;28;20036;-15
2021/03/14 02:17:58;;;;;;;3.83;1.80;;;;;;;;;;5096154;28;20103;-16
2021/03/14 02:20:25;;;;;;;5.88;1.73;;;;;;;;;;5097179;28;20457;-20
2021/03/14 02:22:58;;;;;;;5.90;2.53;;;;;;;;;;5103278;28;20552;-15
2021/03/14 02:25:29;;;;;;;6.70;1.83;;;;;;;;;;5103338;28;20028;-18
2021/03/14 02:27:55;;;;;;;7.38;2.15;;;;;;;;;;5096178;28;20036;-16
2021/03/14 02:30:20;;;;;;;3.30;1.67;;;;;;;;;;5096170;28;20073;-15
2021/03/14 02:32:47;;;;;;;3.25;1.48;;;;;;;;;;5095817;28;20028;-16
2021/03/14 02:35:12;;;;;;;3.95;1.35;;;;;;;;;;5094213;28;20492;-16
2021/03/14 02:37:38;;;;;;;5.38;1.58;;;;;;;;;;5095817;28;20059;-16
2021/03/14 02:40:05;;;;;;;7.57;1.27;;;;;;;;;;5095656;28;20008;-16
2021/03/14 02:42:30;;;;;;;4.25;1.20;;;;;;;;;;5095567;28;20036;-16
2021/03/14 02:44:56;;;;;;;5.18;1.10;;;;;;;;;;5095335;28;20073;-16
2021/03/14 02:47:22;;;;;;;3.95;1.08;;;;;;;;;;5095321;28;20043;-15
2021/03/14 02:49:49;;;;;;;3.72;1.33;;;;;;;;;;5095347;28;20477;-15
2021/03/14 02:52:14;;;;;;;2.60;0.90;;;;;;;;;;5095321;28;20442;-16
2021/03/14 02:54:40;;;;;;;6.30;1.42;;;;;;;;;;5095440;28;20044;-15
2021/03/14 02:57:06;;;;;;;3.78;1.33;;;;;;;;;;5095385;28;20616;-16
2021/03/14 02:59:33;;;;;;;9.00;2.50;;;;;;;;;;5095062;28;20016;-16
2021/03/14 03:01:58;;;;;;;9.35;1.15;;;;;;;;;;5094588;28;20054;-15
2021/03/14 03:04:25;;;;;;;7.43;1.83;;;;;;;;;;5093871;28;20458;-16
2021/03/14 03:06:50;;;;;;;4.28;1.20;;;;;;;;;;5095217;28;20436;-16
2021/03/14 03:09:16;;;;;;;3.85;1.55;;;;;;;;;;5094772;28;20032;-16
2021/03/14 03:11:42;;;;;;;7.00;2.13;;;;;;;;;;5095156;28;20446;-16
2021/03/14 03:14:11;;;;;;;6.93;1.27;;;;;;;;;;5093629;28;20016;-15
2021/03/14 03:16:36;;;;;;;8.00;1.83;;;;;;;;;;5094513;28;20471;-16
2021/03/14 03:19:02;;;;;;;4.78;1.55;;;;;;;;;;5095078;28;20031;-16
2021/03/14 03:21:27;;;;;;;2.47;1.30;;;;;;;;;;5094345;28;20582;-15
2021/03/14 03:23:53;;;;;;;6.57;1.77;;;;;;;;;;5094832;28;20035;-16
2021/03/14 03:26:18;;;;;;;4.82;1.70;;;;;;;;;;5094752;28;20039;-16
2021/03/14 03:28:44;;;;;;;8.63;2.85;;;;;;;;;;5094369;28;20020;-15
2021/03/14 03:31:10;;;;;;;5.78;1.85;;;;;;;;;;5094405;28;20107;-16
2021/03/14 03:33:35;;;;;;;7.53;1.92;;;;;;;;;;5094334;28;20024;-16
2021/03/14 03:36:01;;;;;;;8.57;2.28;;;;;;;;;;5094399;28;20028;-15
2021/03/14 03:38:26;;;;;;;6.40;2.75;;;;;;;;;;5094458;28;20012;-16
2021/03/14 03:40:54;;;;;;;3.30;1.73;;;;;;;;;;5094462;28;20047;-16
2021/03/14 03:43:32;;;;;;;3.15;1.20;;;;;;;;;;5094434;28;20048;-15
2021/03/14 03:45:59;;;;;;;4.07;1.67;;;;;;;;;;5094041;28;20024;-15
2021/03/14 03:48:38;;;;;;;3.70;1.70;;;;;;;;;;5094002;28;20036;-16
2021/03/14 03:51:04;;;;;;;3.95;1.90;;;;;;;;;;5094053;28;20051;-16
2021/03/14 03:53:31;;;;;;;5.80;1.13;;;;;;;;;;5092993;28;20050;-15
2021/03/14 03:55:57;;;;;;;4.82;1.65;;;;;;;;;;5094025;28;20474;-15
2021/03/14 03:58:23;;;;;;;2.25;1.50;;;;;;;;;;5094127;28;20088;-16
2021/03/14 04:00:49;;;;;;;5.43;1.80;;;;;;;;;;5094185;28;20473;-16
2021/03/14 04:03:14;;;;;;;9.98;2.35;;;;;;;;;;5093729;28;20032;-16
2021/03/14 04:05:40;;;;;;;4.47;1.33;;;;;;;;;;5092405;28;20106;-16
2021/03/14 04:08:06;;;;;;;4.75;1.35;;;;;;;;;;5094038;28;20119;-16
2021/03/14 04:10:32;;;;;;;4.45;1.85;;;;;;;;;;5093856;28;20080;-15
2021/03/14 04:12:58;;;;;;;6.13;1.85;;;;;;;;;;5093272;28;20471;-14
2021/03/14 04:15:25;;;;;;;5.45;1.23;;;;;;;;;;5093185;28;20028;-15
2021/03/14 04:17:52;;;;;;;4.38;1.50;;;;;;;;;;5093544;28;20015;-15
2021/03/14 04:20:18;;;;;;;3.95;1.30;;;;;;;;;;5093363;28;20030;-15
2021/03/14 04:22:46;;;;;;;5.22;1.50;;;;;;;;;;5093279;28;20043;-14
2021/03/14 04:25:13;;;;;;;8.50;1.88;;;;;;;;;;5093726;28;20038;-15
2021/03/14 04:27:39;;;;;;;3.28;1.48;;;;;;;;;;5093464;28;20067;-15
2021/03/14 04:30:05;;;;;;;5.95;1.45;;;;;;;;;;5093590;28;20032;-16
2021/03/14 04:32:30;;;;;;;7.45;1.95;;;;;;;;;;5093229;28;20012;-15
2021/03/14 04:34:56;;;;;;;5.00;1.55;;;;;;;;;;5093140;28;20028;-15
2021/03/14 04:37:22;;;;;;;6.93;1.70;;;;;;;;;;5091723;28;20024;-15
2021/03/14 04:39:47;;;;;;;8.00;1.77;;;;;;;;;;5093134;28;20066;-15
2021/03/14 04:42:13;;;;;;;9.18;2.13;;;;;;;;;;5093012;28;20019;-15
2021/03/14 04:44:39;;;;;;;7.80;1.52;;;;;;;;;;5093108;28;20036;-14
2021/03/14 04:47:05;;;;;;;4.47;1.52;;;;;;;;;;5092960;28;20027;-15
2021/03/14 04:49:32;;;;;;;6.60;2.17;;;;;;;;;;5092808;28;20040;-15
2021/03/14 04:51:58;;;;;;;4.45;1.45;;;;;;;;;;5092939;28;20039;-15
2021/03/14 04:54:23;;;;;;;8.10;1.40;;;;;;;;;;5092826;28;20474;-15
2021/03/14 04:56:49;;;;;;;4.65;1.67;;;;;;;;;;5092927;28;20042;-15
2021/03/14 04:59:15;;;;;;;6.95;1.92;;;;;;;;;;5092760;28;20509;-17
2021/03/14 05:01:42;;;;;;;2.40;1.33;;;;;;;;;;5093128;28;20386;-15
2021/03/14 05:04:08;;;;;;;4.65;1.58;;;;;;;;;;5092760;28;20486;-14
2021/03/14 05:06:35;;;;;;;5.57;1.27;;;;;;;;;;5092650;28;20056;-15
2021/03/14 05:09:01;;;;;;;3.78;1.45;;;;;;;;;;5092990;28;20085;-15
2021/03/14 05:11:27;;;;;;;4.63;1.80;;;;;;;;;;5092368;28;20103;-15
2021/03/14 05:13:52;;;;;;;6.13;1.55;;;;;;;;;;5092709;28;20067;-15
2021/03/14 05:16:18;;;;;;;10.55;1.70;;;;;;;;;;5092718;28;20031;-15
2021/03/14 05:18:44;;;;;;;6.53;1.50;;;;;;;;;;5092796;28;20475;-15
2021/03/14 05:21:10;;;;;;;5.95;1.58;;;;;;;;;;5092695;28;20062;-15
2021/03/14 05:23:36;;;;;;;6.45;1.42;;;;;;;;;;5092402;28;20050;-15
2021/03/14 05:26:02;;;;;;;5.82;1.65;;;;;;;;;;5092412;28;20530;-15
2021/03/14 05:28:28;;;;;;;6.13;1.80;;;;;;;;;;5092323;28;20097;-14
2021/03/14 05:30:53;;;;;;;5.65;1.98;;;;;;;;;;5092697;28;20016;-15
2021/03/14 05:33:19;;;;;;;4.25;1.80;;;;;;;;;;5092342;28;20383;-15
2021/03/14 05:35:44;;;;;;;8.30;1.75;;;;;;;;;;5092318;28;20141;-15
2021/03/14 05:38:09;;;;;;;4.90;1.67;;;;;;;;;;5092622;28;20407;-15
2021/03/14 05:40:35;;;;;;;5.13;1.20;;;;;;;;;;5092227;28;20454;-15
2021/03/14 05:43:02;;;;;;;6.28;1.50;;;;;;;;;;5092334;28;20032;-15
2021/03/14 05:45:27;;;;;;;6.15;1.50;;;;;;;;;;5092436;28;20366;-15
2021/03/14 05:47:53;;;;;;;7.65;1.00;;;;;;;;;;5092413;28;20040;-14
2021/03/14 05:50:20;;;;;;;2.50;0.88;;;;;;;;;;5092464;28;20137;-14
2021/03/14 05:52:47;;;;;;;6.18;2.05;;;;;;;;;;5092236;28;20058;-15
2021/03/14 05:55:14;;;;;;;6.18;1.60;;;;;;;;;;5092137;28;20554;-15
2021/03/14 05:57:43;;;;;;;4.50;1.23;;;;;;;;;;5092495;28;20028;-15
2021/03/14 06:00:10;;;;;;;4.97;1.33;;;;;;;;;;5092126;28;20012;-15
2021/03/14 06:02:37;;;;;;;6.47;1.45;;;;;;;;;;5092097;28;20044;-15
2021/03/14 06:05:03;;;;;;;5.07;1.30;;;;;;;;;;5092137;28;20031;-15
2021/03/14 06:07:28;;;;;;;6.10;0.95;;;;;;;;;;5092069;28;20036;-15
2021/03/14 06:09:54;;;;;;;3.60;1.15;;;;;;;;;;5092061;28;20012;-15
2021/03/14 06:12:19;;;;;;;5.10;1.15;;;;;;;;;;5090727;28;20081;-15
2021/03/14 06:14:44;;;;;;;3.58;1.08;;;;;;;;;;5092061;28;20348;-15
2021/03/14 06:17:10;;;;;;;5.45;1.17;;;;;;;;;;5091934;28;20035;-15
2021/03/14 06:19:35;;;;;;;3.92;1.23;;;;;;;;;;5091968;28;20020;-15
2021/03/14 06:22:19;;;;;;;6.88;1.33;;;;;;;;;;5091826;28;20044;-16
2021/03/14 06:24:45;;;;;;;9.20;1.20;;;;;;;;;;5091979;28;20024;-15
2021/03/14 06:27:11;;;;;;;5.20;1.40;;;;;;;;;;5091860;28;20019;-16
2021/03/14 06:29:38;;;;;;;3.55;0.95;;;;;;;;;;5091739;28;20028;-15
2021/03/14 06:32:04;;;;;;;3.38;1.42;;;;;;;;;;5092183;28;20012;-15
2021/03/14 06:34:33;;;;;;;8.90;2.00;;;;;;;;;;5092076;28;20054;-15
2021/03/14 06:37:07;;;;;;;7.75;1.88;;;;;;;;;;5092308;28;20085;-15
2021/03/14 06:39:34;;;;;;;4.70;2.10;;;;;;;;;;5094127;28;20433;-15
2021/03/14 06:42:03;;;;;;;6.57;1.75;;;;;;;;;;5095666;28;20019;-15
2021/03/14 06:44:32;;;;;;;8.13;1.67;;;;;;;;;;5095579;28;20077;-15
2021/03/14 06:46:58;;;;;;;11.00;2.22;;;;;;;;;;5095579;28;20016;-15
2021/03/14 06:49:25;;;;;;;6.40;2.15;;;;;;;;;;5095083;28;20108;-14
2021/03/14 06:51:52;;;;;;;22.00;4.32;;;;;;;;;;5095325;28;20028;-15
2021/03/14 06:54:17;;;;;;;9.18;2.35;;;;;;;;;;5095125;28;20025;-14
2021/03/14 06:56:56;;;;;;;13.65;2.90;;;;;;;;;;5095410;28;20084;-14
2021/03/14 06:59:22;;;;;;;9.30;1.75;;;;;;;;;;5094856;28;20471;-14
2021/03/14 07:01:59;;;;;;;8.70;2.22;;;;;;;;;;5095085;28;20016;-15
2021/03/14 07:04:34;;;;;;;11.60;2.75;;;;;;;;;;5094870;28;20081;-14
2021/03/14 07:07:00;;;;;;;10.82;3.08;;;;;;;;;;5094900;28;20035;-14
2021/03/14 07:09:25;;;;;;;6.30;1.70;;;;;;;;;;5094700;28;20495;-14
2021/03/14 07:11:51;;;;;;;13.27;2.78;;;;;;;;;;5094618;28;20036;-15
2021/03/14 07:14:18;;;;;;;12.57;2.85;;;;;;;;;;5094885;28;20467;-15
2021/03/14 07:16:53;;;;;;;9.02;2.83;;;;;;;;;;5095049;28;20113;-15
2021/03/14 07:19:32;;;;;;;12.77;3.50;;;;;;;;;;5094024;28;20103;-15
2021/03/14 07:21:59;;;;;;;9.88;3.28;;;;;;;;;;4718648;28;10000671;-15
2021/03/14 07:24:29;;;;;;;11.23;3.22;;;;;;;;;;5070918;28;20028;-16
2021/03/14 07:26:56;;;;;;;12.30;4.80;;;;;;;;;;5070536;28;20035;-17
2021/03/14 07:29:23;;;;;;;15.05;3.42;;;;;;;;;;5070859;28;20020;-18
2021/03/14 07:31:49;;;;;;;12.48;3.65;;;;;;;;;;5070590;28;20070;-17
2021/03/14 07:34:15;;;;;;;8.48;3.15;;;;;;;;;;5071286;28;20052;-18
2021/03/14 07:36:41;;;;;;;9.10;3.22;;;;;;;;;;5069706;28;20062;-17
2021/03/14 07:39:06;;;;;;;9.57;3.08;;;;;;;;;;5070621;28;20467;-17
2021/03/14 07:41:33;;;;;;;7.10;2.92;;;;;;;;;;5070670;28;20162;-16
2021/03/14 07:44:00;;;;;;;10.32;3.40;;;;;;;;;;5070151;28;20494;-16
2021/03/14 07:46:26;;;;;;;13.70;3.55;;;;;;;;;;5069857;28;20035;-17
2021/03/14 07:48:52;;;;;;;9.80;2.78;;;;;;;;;;5068792;28;20040;-16
2021/03/14 07:51:20;;;;;;;5.95;2.45;;;;;;;;;;5070289;28;20062;-16
2021/03/14 07:53:45;;;;;;;11.27;3.00;;;;;;;;;;5070676;28;20023;-17
2021/03/14 07:56:11;;;;;;;7.78;2.70;;;;;;;;;;5070142;28;20115;-17
2021/03/14 07:58:37;;;;;;;7.45;3.40;;;;;;;;;;5070546;28;20108;-16
2021/03/14 08:01:31;;;;;;;8.27;3.35;;;;;;;;;;5070592;28;20119;-16
2021/03/14 08:03:57;;;;;;;12.70;3.00;;;;;;;;;;5056910;28;20055;-17
2021/03/14 08:06:41;;;;;;;8.85;2.80;;;;;;;;;;5069914;28;20028;-17
2021/03/14 08:09:07;;;;;;;10.68;3.28;;;;;;;;;;5069863;28;20399;-16
2021/03/14 08:11:32;;;;;;;8.63;3.40;;;;;;;;;;5070185;28;20108;-13
2021/03/14 08:13:58;;;;;;;13.48;3.33;;;;;;;;;;5069992;28;20029;-14
2021/03/14 08:16:25;;;;;;;6.80;2.58;;;;;;;;;;5068349;28;20023;-17
2021/03/14 08:18:51;;;;;;;8.90;2.85;;;;;;;;;;5070293;28;20044;-14
2021/03/14 08:21:20;;;;;;;9.85;2.65;;;;;;;;;;5066539;28;20060;-15
2021/03/14 08:23:55;;;;;;;9.52;3.55;;;;;;;;;;5058297;28;20140;-15
2021/03/14 08:26:22;;;;;;;8.73;3.38;;;;;;;;;;5049938;28;20036;-14
2021/03/14 08:28:54;;;;;;;15.57;3.33;;;;;;;;;;5049602;28;20652;-15
2021/03/14 08:31:39;;;;;;;11.48;3.75;;;;;;;;;;5048236;28;20888;-15
2021/03/14 08:34:06;;;;;;;9.85;2.90;;;;;;;;;;5048397;28;20025;-15
2021/03/14 08:36:41;;;;;;;8.48;2.65;;;;;;;;;;5057058;28;20056;-15
2021/03/14 08:39:23;;;;;;;8.88;3.08;;;;;;;;;;5068117;28;20036;-14
2021/03/14 08:41:55;;;;;;;11.45;3.22;;;;;;;;;;5068238;28;20028;-15
2021/03/14 08:44:31;;;;;;;10.77;3.42;;;;;;;;;;5068067;28;20032;-14
2021/03/14 08:47:07;;;;;;;13.05;3.78;;;;;;;;;;5068141;28;20040;-14
2021/03/14 08:49:41;;;;;;;9.10;3.45;;;;;;;;;;5059434;28;20036;-14
2021/03/14 08:52:08;;;;;;;11.65;3.90;;;;;;;;;;5067604;28;20115;-14
2021/03/14 08:54:39;;;;;;;;;;;;;;;;;;5068224;28;20049;-15
2021/03/14 08:57:12;;;;;;;7.40;2.75;;;;;;;;;;5067104;28;19912;-15
2021/03/14 08:59:47;;;;;;;7.63;2.97;;;;;;;;;;5067106;28;20032;-15
2021/03/14 09:02:19;;;;;;;7.43;2.88;;;;;;;;;;5069299;28;20052;-14
2021/03/14 09:04:45;;;;;;;9.60;2.63;;;;;;;;;;5067281;28;20114;-15
2021/03/14 09:07:17;;;;;;;8.35;2.60;;;;;;;;;;5054410;28;20497;-15
2021/03/14 09:09:47;;;;;;;4.10;2.00;;;;;;;;;;5052861;28;20036;-14
2021/03/14 09:12:25;;;;;;;8.98;2.40;;;;;;;;;;5081335;28;20083;-16
2021/03/14 09:15:12;;;;;;;7.03;3.00;;;;;;;;;;5053226;28;20103;-14
2021/03/14 09:17:44;;;;;;;7.15;2.72;;;;;;;;;;5047426;28;20087;-15
2021/03/14 09:20:10;;;;;;;5.88;2.72;;;;;;;;;;5090725;27;20022;-15
2021/03/14 09:22:39;;;;;;;8.55;2.90;;;;;;;;;;5067870;28;20052;-14
2021/03/14 09:25:23;;;;;;;7.25;2.80;;;;;;;;;;5071366;28;20046;-15
2021/03/14 09:27:49;;;;;;;4.28;2.15;;;;;;;;;;5087776;28;20070;-14
2021/03/14 09:30:33;;;;;;;7.20;2.33;;;;;;;;;;5078278;28;20043;-15
2021/03/14 09:33:03;;;;;;;7.47;2.72;;;;;;;;;;5067393;28;20036;-15
2021/03/14 09:35:37;;;;;;;4.78;2.05;;;;;;;;;;5067149;28;20029;-15
2021/03/14 09:38:16;;;;;;;7.97;2.55;;;;;;;;;;5067514;28;20048;-14
2021/03/14 09:40:52;;;;;;;9.45;2.97;;;;;;;;;;5067406;28;20032;-15
2021/03/14 09:43:22;;;;;;;6.90;2.42;;;;;;;;;;5068046;28;20857;-16
2021/03/14 09:46:08;;;;;;;8.98;3.17;;;;;;;;;;5063996;28;20040;-15
2021/03/14 09:48:42;;;;;;;3.40;1.95;;;;;;;;;;5066938;28;20047;-15
2021/03/14 09:51:09;;;;;;;4.63;1.77;;;;;;;;;;5067308;28;20029;-16
2021/03/14 09:53:37;;;;;;;4.38;1.95;;;;;;;;;;5050595;28;20033;-16
2021/03/14 09:56:06;;;;;;;5.30;1.92;;;;;;;;;;5066356;28;20534;-16
2021/03/14 09:58:50;;;;;;;4.45;1.58;;;;;;;;;;5068635;28;20043;-17
2021/03/14 10:01:17;;;;;;;8.02;1.92;;;;;;;;;;5049633;28;20406;-16
2021/03/14 10:03:42;;;;;;;2.30;1.38;;;;;;;;;;5066861;28;20142;-18
2021/03/14 10:06:15;;;;;;;4.22;1.88;;;;;;;;;;5066439;28;20139;-17
2021/03/14 10:08:49;;;;;;;5.45;1.85;;;;;;;;;;5065915;28;20071;-17
2021/03/14 10:11:16;;;;;;;7.18;1.55;;;;;;;;;;5066868;28;20028;-17
2021/03/14 10:13:52;;;;;;;4.45;1.67;;;;;;;;;;5070472;28;20029;-17
2021/03/14 10:16:18;;;;;;;7.00;1.73;;;;;;;;;;5070253;28;20021;-16
2021/03/14 10:18:46;;;;;;;3.92;1.83;;;;;;;;;;5071151;28;20893;-15
2021/03/14 10:21:18;;;;;;;6.43;2.60;;;;;;;;;;5085279;28;20071;-16
2021/03/14 10:23:49;;;;;;;2.83;1.95;;;;;;;;;;5070328;28;20044;-16
2021/03/14 10:26:27;;;;;;;5.32;3.55;;;;;;;;;;5071351;28;20387;-15
2021/03/14 10:28:58;;;;;;;3.67;1.50;;;;;;;;;;5070183;28;20040;-16
2021/03/14 10:31:42;;;;;;;4.00;2.17;;;;;;;;;;5069707;28;20031;-14
2021/03/14 10:34:18;;;;;;;5.10;1.10;;;;;;;;;;5070254;28;20028;-15
2021/03/14 10:36:44;;;;;;;2.92;1.00;;;;;;;;;;5070393;28;20447;-15
2021/03/14 10:39:10;;;;;;;3.70;1.50;;;;;;;;;;5071720;28;20056;-16
2021/03/14 10:41:43;;;;;;;7.28;1.83;;;;;;;;;;5071312;28;20535;-16
2021/03/14 10:44:11;;;;;;;1.48;0.82;;;;;;;;;;5069807;28;20060;-16
2021/03/14 10:46:51;;;;;;;2.72;1.20;;;;;;;;;;5054714;28;20145;-16
2021/03/14 10:49:23;;;;;;;2.72;1.02;;;;;;;;;;5070819;28;20060;-18
2021/03/14 10:51:50;;;;;;;4.93;1.20;;;;;;;;;;5070021;28;20048;-17
2021/03/14 10:54:19;;;;;;;2.00;0.90;;;;;;;;;;5064515;28;20559;-17
2021/03/14 10:56:46;;;;;;;0.73;0.50;;;;;;;;;;5049258;28;20044;-17
2021/03/14 10:59:21;;;;;;;2.25;0.70;;;;;;;;;;5059355;28;20023;-17
2021/03/14 11:02:15;;;;;;;0.43;0.40;;;;;;;;;;5064029;28;20037;-19
2021/03/14 11:04:51;;;;;;;3.95;0.30;;;;;;;;;;5070162;28;20111;-18
2021/03/14 11:07:24;;;;;;;1.48;0.40;;;;;;;;;;5069506;28;20028;-15
2021/03/14 11:10:03;;;;;;;0.50;0.50;;;;;;;;;;5069598;28;20099;-16
2021/03/14 11:12:30;;;;;;;0.63;0.25;;;;;;;;;;5067718;28;20028;-16
2021/03/14 11:14:55;;;;;;;1.15;0.30;;;;;;;;;;5083065;28;20555;-15
2021/03/14 11:17:31;;;;;;;1.58;0.30;;;;;;;;;;5068753;28;20040;-15
2021/03/14 11:20:09;;;;;;;0.20;0.20;;;;;;;;;;5066665;28;20111;-16
2021/03/14 11:22:43;;;;;;;0.65;0.10;;;;;;;;;;5068983;28;20045;-15
2021/03/14 11:25:12;;;;;;;1.38;0.32;;;;;;;;;;5070774;28;20032;-17
2021/03/14 11:27:38;;;;;;;0.73;0.10;;;;;;;;;;5066462;28;20118;-19
2021/03/14 11:30:05;;;;;;;1.88;0.47;;;;;;;;;;5069228;28;20031;-17
2021/03/14 11:32:31;;;;;;;1.85;0.30;;;;;;;;;;5064838;28;20022;-16
2021/03/14 11:35:10;;;;;;;1.20;0.13;;;;;;;;;;5068893;28;20390;-17
2021/03/14 11:38:08;;;;;;;0.68;0.22;;;;;;;;;;5057675;28;20071;-17
2021/03/14 11:40:56;;;;;;;0.30;0.10;;;;;;;;;;5069992;28;20060;-17
2021/03/14 11:43:40;;;;;;;0.13;0.08;;;;;;;;;;5070011;28;20132;-17
2021/03/14 11:46:15;;;;;;;0.13;0.10;;;;;;;;;;5069199;28;20123;-17
2021/03/14 11:48:43;;;;;;;0.93;0.28;;;;;;;;;;5052645;28;20086;-16
2021/03/14 11:51:14;;;;;;;0.30;0.30;;;;;;;;;;5068619;28;20020;-17
2021/03/14 11:53:40;;;;;;;2.60;0.20;;;;;;;;;;5068581;28;20123;-23
2021/03/14 11:56:05;;;;;;;0.17;0.15;;;;;;;;;;5069713;28;20024;-17
2021/03/14 11:58:48;;;;;;;1.55;0.20;;;;;;;;;;5054488;28;20495;-17
2021/03/14 12:01:16;;;;;;;1.13;0.40;;;;;;;;;;5068097;28;20549;-17
2021/03/14 12:03:44;;;;;;;0.70;0.20;;;;;;;;;;5067877;28;20032;-17
2021/03/14 12:06:14;;;;;;;0.80;0.47;;;;;;;;;;5068439;28;20090;-17
2021/03/14 12:09:04;;;;;;;0.17;0.10;;;;;;;;;;5068087;28;20483;-16
2021/03/14 12:11:34;;;;;;;0.80;0.65;;;;;;;;;;5068174;28;20033;-17
2021/03/14 12:14:00;;;;;;;0.40;0.30;;;;;;;;;;5068758;28;20036;-14
2021/03/14 12:16:44;;;;;;;0.30;0.30;;;;;;;;;;5060980;28;20043;-15
2021/03/14 12:19:12;;;;;;;2.60;0.30;;;;;;;;;;5054008;28;20690;-15
2021/03/14 12:21:38;;;;;;;0.60;0.25;;;;;;;;;;5083387;28;20058;-15
2021/03/14 12:24:03;;;;;;;0.77;0.32;;;;;;;;;;5090412;28;20818;-14
2021/03/14 12:26:33;;;;;;;0.50;0.20;;;;;;;;;;5088597;28;20564;-15
2021/03/14 12:29:07;;;;;;;2.95;0.80;;;;;;;;;;5055406;28;20472;-14
2021/03/14 12:31:45;;;;;;;1.10;0.40;;;;;;;;;;5063869;28;20045;-15
2021/03/14 12:34:11;;;;;;;0.65;0.30;;;;;;;;;;5065212;28;20441;-15
2021/03/14 12:36:37;;;;;;;4.18;0.30;;;;;;;;;;5076250;28;20048;-15
2021/03/14 12:39:18;;;;;;;0.95;0.40;;;;;;;;;;5068314;28;20036;-15
2021/03/14 12:41:43;;;;;;;0.20;0.20;;;;;;;;;;5069412;28;20056;-14
2021/03/14 12:44:09;;;;;;;0.30;0.30;;;;;;;;;;5067248;28;20012;-15
2021/03/14 12:46:38;;;;;;;0.28;0.20;;;;;;;;;;5067533;28;20040;-14
2021/03/14 12:49:04;;;;;;;0.55;0.20;;;;;;;;;;5051336;28;20051;-15
2021/03/14 12:51:30;;;;;;;0.55;0.25;;;;;;;;;;5067865;28;20050;-15
2021/03/14 12:53:55;;;;;;;1.38;0.40;;;;;;;;;;5069386;28;20483;-15
2021/03/14 12:56:22;;;;;;;0.88;0.28;;;;;;;;;;5067312;28;20411;-15
2021/03/14 12:59:00;;;;;;;0.55;0.25;;;;;;;;;;5068083;28;20028;-15
2021/03/14 13:01:27;;;;;;;0.20;0.20;;;;;;;;;;5067409;28;20020;-16
2021/03/14 13:03:53;;;;;;;0.70;0.50;;;;;;;;;;5069040;28;20021;-15
2021/03/14 13:06:19;;;;;;;1.38;0.50;;;;;;;;;;5068986;28;20034;-15
2021/03/14 13:08:44;;;;;;;0.98;0.28;;;;;;;;;;5068844;28;20032;-15
2021/03/14 13:11:11;;;;;;;0.32;0.30;;;;;;;;;;5067735;28;20029;-15
2021/03/14 13:13:36;;;;;;;3.10;1.15;;;;;;;;;;5068788;28;20043;-21
2021/03/14 13:16:02;;;;;;;0.73;0.45;;;;;;;;;;5069081;28;20032;-14
2021/03/14 13:18:28;;;;;;;0.73;0.43;;;;;;;;;;5067653;28;20024;-15
2021/03/14 13:20:54;;;;;;;0.70;0.50;;;;;;;;;;5079477;28;20035;-15
2021/03/14 13:23:19;;;;;;;1.08;0.98;;;;;;;;;;5075214;28;20510;-14
2021/03/14 13:25:45;;;;;;;2.25;0.40;;;;;;;;;;5068486;28;20028;-15
2021/03/14 13:28:11;;;;;;;2.10;0.38;;;;;;;;;;5067330;28;20078;-14
2021/03/14 13:30:37;;;;;;;1.70;0.47;;;;;;;;;;5068440;28;20102;-14
2021/03/14 13:33:02;;;;;;;0.63;0.40;;;;;;;;;;5068637;28;20027;-15
2021/03/14 13:35:28;;;;;;;1.60;0.20;;;;;;;;;;5068634;28;20024;-15
2021/03/14 13:37:54;;;;;;;2.97;1.05;;;;;;;;;;5068467;28;20009;-14
2021/03/14 13:40:19;;;;;;;1.58;0.73;;;;;;;;;;5067664;28;20032;-15
2021/03/14 13:42:46;;;;;;;0.50;0.40;;;;;;;;;;5068806;28;20368;-15
2021/03/14 13:45:11;;;;;;;4.30;0.65;;;;;;;;;;5068608;28;20037;-14
2021/03/14 13:47:37;;;;;;;2.40;1.10;;;;;;;;;;5072624;28;20451;-15
2021/03/14 13:50:03;;;;;;;2.38;0.63;;;;;;;;;;5073184;28;20056;-14
2021/03/14 13:52:30;;;;;;;1.50;0.93;;;;;;;;;;5072133;28;20073;-15
2021/03/14 13:54:58;;;;;;;0.22;0.17;;;;;;;;;;5071361;28;20475;-15
2021/03/14 13:57:24;;;;;;;0.98;0.52;;;;;;;;;;5071617;28;20048;-15
2021/03/14 13:59:49;;;;;;;1.30;0.22;;;;;;;;;;5072707;28;20040;-15
2021/03/14 14:02:15;;;;;;;0.40;0.20;;;;;;;;;;5072887;28;20198;-15
2021/03/14 14:04:40;;;;;;;0.80;0.52;;;;;;;;;;5071701;28;20388;-14
2021/03/14 14:07:06;;;;;;;0.50;0.10;;;;;;;;;;5072571;28;20020;-15
2021/03/14 14:09:32;;;;;;;0.20;0.20;;;;;;;;;;5071846;28;20060;-15
2021/03/14 14:11:57;;;;;;;2.22;0.52;;;;;;;;;;5068688;28;20025;-15
2021/03/14 14:14:23;;;;;;;1.13;0.22;;;;;;;;;;5068738;28;20380;-16
2021/03/14 14:16:48;;;;;;;0.88;0.32;;;;;;;;;;5050626;28;20017;-16
2021/03/14 14:19:14;;;;;;;0.68;0.52;;;;;;;;;;5059212;28;20033;-16
2021/03/14 14:21:39;;;;;;;0.35;0.13;;;;;;;;;;5088642;28;20518;-16
2021/03/14 14:24:05;;;;;;;1.08;0.20;;;;;;;;;;5092693;28;20043;-15
2021/03/14 14:26:31;;;;;;;0.40;0.20;;;;;;;;;;5079877;28;20166;-17
2021/03/14 14:28:57;;;;;;;0.20;0.10;;;;;;;;;;5070852;28;20051;-17
2021/03/14 14:31:22;;;;;;;0.57;0.40;;;;;;;;;;5072407;28;20379;-15
2021/03/14 14:33:48;;;;;;;1.38;0.52;;;;;;;;;;5071589;28;20270;-17
2021/03/14 14:36:13;;;;;;;0.10;0.10;;;;;;;;;;5072357;28;20016;-17
2021/03/14 14:38:39;;;;;;;2.08;0.55;;;;;;;;;;5071614;28;20044;-16
2021/03/14 14:41:04;;;;;;;0.28;0.22;;;;;;;;;;5071653;28;20019;-15
2021/03/14 14:43:30;;;;;;;0.75;0.20;;;;;;;;;;5071480;28;20124;-16
2021/03/14 14:45:56;;;;;;;0.52;0.20;;;;;;;;;;5071224;28;20371;-16
2021/03/14 14:48:22;;;;;;;0.10;0.10;;;;;;;;;;5071524;28;20070;-16